Time;durP1;ratioP1;P1;durP2;ratioP2;P2;SDS_P1;SDS_P2;PMS_P1;PMS_P2;Temp;Humidity;BMP_temperature;BMP_pressure;BME280_temperature;BME280_humidity;BME280_pressure;Samples;Min_cycle;Max_cycle;Signal;HPM_P1;HPM_P2
2022/03/13 00:00:34;;;;;;;2.03;1.73;;;16.60;67.60;;;;;;5072750;28;20020;-71
2022/03/13 00:03:02;;;;;;;2.75;2.20;;;16.60;67.40;;;;;;5072196;28;20021;-70
2022/03/13 00:05:28;;;;;;;2.50;2.30;;;16.50;66.80;;;;;;5072423;28;20036;-72
2022/03/13 00:07:56;;;;;;;1.92;1.60;;;16.50;67.10;;;;;;5072338;28;20028;-65
2022/03/13 00:10:27;;;;;;;2.75;1.73;;;16.50;66.70;;;;;;5072804;28;20024;-68
2022/03/13 00:12:54;;;;;;;2.25;2.05;;;16.50;67.10;;;;;;5072350;28;20103;-70
2022/03/13 00:15:32;;;;;;;1.98;1.77;;;16.50;67.50;;;;;;5072652;28;20100;-67
2022/03/13 00:17:59;;;;;;;1.98;1.50;;;16.50;67.80;;;;;;5071828;28;20512;-70
2022/03/13 00:20:27;;;;;;;2.33;1.90;;;16.50;68.30;;;;;;5072659;28;20021;-64
2022/03/13 00:22:54;;;;;;;2.50;2.10;;;16.50;68.50;;;;;;5072451;28;20020;-68
2022/03/13 00:25:20;;;;;;;2.90;2.00;;;16.50;67.20;;;;;;5072464;28;20400;-69
2022/03/13 00:27:46;;;;;;;2.58;2.10;;;16.50;67.30;;;;;;5074859;28;20020;-70
2022/03/13 00:30:12;;;;;;;2.33;2.08;;;16.40;67.00;;;;;;5057644;28;20028;-71
2022/03/13 00:32:38;;;;;;;2.20;2.00;;;16.40;67.40;;;;;;5075662;28;20028;-72
2022/03/13 00:35:04;;;;;;;2.20;1.80;;;16.40;67.20;;;;;;5075528;28;20120;-71
2022/03/13 00:37:30;;;;;;;3.45;2.10;;;16.40;66.90;;;;;;5058075;28;20119;-71
2022/03/13 00:39:56;;;;;;;2.13;1.90;;;16.40;67.80;;;;;;5075670;28;20158;-71
2022/03/13 00:42:23;;;;;;;3.95;2.30;;;16.40;67.90;;;;;;5058091;28;20024;-71
2022/03/13 00:44:49;;;;;;;3.28;2.03;;;16.30;67.60;;;;;;5075517;28;20013;-71
2022/03/13 00:47:16;;;;;;;1.73;1.50;;;16.40;67.50;;;;;;5075615;28;20100;-71
2022/03/13 00:49:42;;;;;;;1.92;1.65;;;16.40;68.30;;;;;;5075391;28;20033;-71
2022/03/13 00:52:07;;;;;;;3.03;1.67;;;16.40;68.10;;;;;;5075595;28;20025;-70
2022/03/13 00:54:33;;;;;;;1.73;1.60;;;16.40;67.90;;;;;;5075483;28;20024;-71
2022/03/13 00:56:59;;;;;;;2.20;1.85;;;16.40;68.20;;;;;;5075544;28;20040;-70
2022/03/13 00:59:25;;;;;;;2.38;2.00;;;16.30;67.70;;;;;;5057109;28;20082;-71
2022/03/13 01:01:50;;;;;;;2.13;1.88;;;16.30;67.50;;;;;;5075111;28;20024;-68
2022/03/13 01:04:16;;;;;;;1.98;1.52;;;16.40;68.30;;;;;;5057072;28;20476;-71
2022/03/13 01:06:43;;;;;;;1.70;1.50;;;16.40;68.00;;;;;;5075346;28;20104;-71
2022/03/13 01:09:09;;;;;;;1.88;1.70;;;16.40;68.20;;;;;;5075037;28;20036;-71
2022/03/13 01:11:34;;;;;;;2.35;1.63;;;16.30;68.00;;;;;;5075329;28;20029;-70
2022/03/13 01:14:00;;;;;;;3.88;1.77;;;16.40;68.20;;;;;;5074908;28;20029;-72
2022/03/13 01:16:28;;;;;;;2.53;2.05;;;16.40;68.10;;;;;;5074852;28;20020;-71
2022/03/13 01:18:59;;;;;;;2.15;1.52;;;16.30;67.90;;;;;;5074994;28;20048;-72
2022/03/13 01:21:26;;;;;;;1.52;1.42;;;16.40;68.50;;;;;;5088991;28;20023;-71
2022/03/13 01:24:00;;;;;;;1.88;1.50;;;16.40;68.40;;;;;;5074864;28;20489;-71
2022/03/13 01:26:26;;;;;;;1.70;1.55;;;16.40;68.20;;;;;;5074621;28;20603;-71
2022/03/13 01:28:56;;;;;;;3.05;1.98;;;16.40;68.40;;;;;;5074624;28;20103;-70
2022/03/13 01:31:28;;;;;;;2.08;1.73;;;16.30;68.20;;;;;;5074464;28;20032;-64
2022/03/13 01:33:54;;;;;;;1.83;1.50;;;16.40;67.60;;;;;;5074682;28;20479;-70
2022/03/13 01:36:20;;;;;;;3.05;1.75;;;16.30;67.70;;;;;;5074328;28;20130;-63
2022/03/13 01:38:46;;;;;;;2.85;1.70;;;16.30;67.90;;;;;;5073092;28;20037;-65
2022/03/13 01:41:11;;;;;;;2.95;2.65;;;16.30;67.90;;;;;;5073844;28;20377;-63
2022/03/13 01:43:37;;;;;;;2.38;2.17;;;16.30;67.40;;;;;;5074198;28;20074;-69
2022/03/13 01:46:04;;;;;;;1.50;1.40;;;16.20;67.50;;;;;;5074533;28;20529;-73
2022/03/13 01:48:37;;;;;;;1.67;1.42;;;16.30;68.40;;;;;;5074395;28;20031;-71
2022/03/13 01:51:03;;;;;;;1.85;1.50;;;16.30;68.40;;;;;;5074255;28;20091;-71
2022/03/13 01:53:28;;;;;;;2.90;2.05;;;16.30;68.50;;;;;;5074376;28;20048;-66
2022/03/13 01:55:57;;;;;;;1.73;1.52;;;16.30;67.90;;;;;;5074025;28;20021;-71
2022/03/13 01:58:23;;;;;;;2.25;1.73;;;16.40;68.30;;;;;;5073898;28;20032;-73
2022/03/13 02:00:49;;;;;;;1.42;1.17;;;16.30;68.20;;;;;;5074041;28;20013;-72
2022/03/13 02:03:18;;;;;;;2.60;2.25;;;16.30;68.40;;;;;;5074020;28;20032;-71
2022/03/13 02:05:45;;;;;;;1.67;1.45;;;16.30;67.50;;;;;;5074029;28;20061;-71
2022/03/13 02:08:16;;;;;;;2.30;2.08;;;16.30;68.00;;;;;;5073833;28;20035;-72
2022/03/13 02:10:42;;;;;;;5.67;2.23;;;16.30;68.00;;;;;;5073985;28;20013;-71
2022/03/13 02:13:08;;;;;;;1.65;1.55;;;16.30;68.20;;;;;;5073750;28;20047;-71
2022/03/13 02:15:34;;;;;;;2.45;2.25;;;16.30;68.30;;;;;;5073885;28;20031;-72
2022/03/13 02:18:01;;;;;;;1.88;1.20;;;16.30;68.20;;;;;;5073704;28;20389;-70
2022/03/13 02:20:27;;;;;;;1.75;1.42;;;16.30;68.30;;;;;;5073860;28;20028;-69
2022/03/13 02:22:59;;;;;;;2.53;1.90;;;16.30;68.30;;;;;;5073620;28;20031;-72
2022/03/13 02:25:26;;;;;;;1.98;1.80;;;16.30;68.10;;;;;;5073518;28;20489;-70
2022/03/13 02:27:51;;;;;;;1.83;1.60;;;16.30;68.30;;;;;;5073567;28;20023;-64
2022/03/13 02:30:22;;;;;;;1.60;1.30;;;16.30;68.30;;;;;;5073709;28;20377;-63
2022/03/13 02:32:48;;;;;;;1.88;1.38;;;16.30;68.20;;;;;;5073540;28;20036;-69
2022/03/13 02:35:17;;;;;;;2.20;1.60;;;16.30;68.20;;;;;;5073135;28;20040;-64
2022/03/13 02:37:42;;;;;;;2.03;1.45;;;16.40;68.20;;;;;;5055531;28;20040;-64
2022/03/13 02:40:18;;;;;;;1.55;1.45;;;16.30;68.20;;;;;;5072319;28;20017;-71
2022/03/13 02:42:44;;;;;;;1.88;1.67;;;16.30;68.20;;;;;;5073122;28;20031;-71
2022/03/13 02:45:11;;;;;;;1.55;1.38;;;16.30;68.20;;;;;;5073535;28;20025;-68
2022/03/13 02:47:37;;;;;;;1.90;1.42;;;16.30;68.30;;;;;;5073130;28;20021;-72
2022/03/13 02:50:03;;;;;;;2.08;1.60;;;16.30;68.30;;;;;;5072959;28;20017;-71
2022/03/13 02:52:28;;;;;;;3.08;2.05;;;16.30;68.40;;;;;;5073233;28;20473;-71
2022/03/13 02:54:54;;;;;;;2.75;2.20;;;16.20;68.30;;;;;;5073369;28;20025;-72
2022/03/13 02:57:19;;;;;;;1.80;1.50;;;16.30;68.50;;;;;;5072747;28;20142;-72
2022/03/13 02:59:45;;;;;;;2.05;1.67;;;16.30;68.50;;;;;;5073171;28;20077;-71
2022/03/13 03:02:11;;;;;;;2.28;1.95;;;16.30;68.50;;;;;;5073029;28;20437;-70
2022/03/13 03:04:37;;;;;;;1.80;1.70;;;16.20;68.50;;;;;;5073229;28;20087;-71
2022/03/13 03:07:04;;;;;;;2.10;1.40;;;16.20;68.60;;;;;;5073120;28;20025;-71
2022/03/13 03:09:32;;;;;;;2.15;1.83;;;16.20;68.60;;;;;;5073111;28;20025;-70
2022/03/13 03:12:00;;;;;;;2.05;1.80;;;16.20;68.70;;;;;;5072553;28;20112;-71
2022/03/13 03:14:27;;;;;;;3.47;2.60;;;16.20;68.70;;;;;;5073157;28;20025;-69
2022/03/13 03:16:54;;;;;;;4.53;3.25;;;16.20;68.80;;;;;;5072839;28;20059;-64
2022/03/13 03:19:20;;;;;;;2.28;1.63;;;16.10;68.90;;;;;;5072964;28;20578;-63
2022/03/13 03:21:46;;;;;;;4.68;3.00;;;16.10;68.90;;;;;;5071573;28;20123;-72
2022/03/13 03:24:13;;;;;;;2.20;1.63;;;16.10;68.90;;;;;;5073029;28;20027;-63
2022/03/13 03:26:39;;;;;;;2.20;1.52;;;16.10;69.10;;;;;;5072755;28;20024;-68
2022/03/13 03:29:04;;;;;;;2.80;2.05;;;16.10;69.20;;;;;;5072849;28;20489;-70
2022/03/13 03:31:30;;;;;;;2.45;2.25;;;16.10;69.20;;;;;;5072890;28;20021;-65
2022/03/13 03:33:56;;;;;;;2.85;2.58;;;16.10;69.20;;;;;;5072625;28;20105;-72
2022/03/13 03:36:21;;;;;;;1.80;1.63;;;16.10;69.20;;;;;;5072735;28;20037;-63
2022/03/13 03:38:47;;;;;;;2.95;2.40;;;16.10;69.30;;;;;;5072804;28;20064;-65
2022/03/13 03:41:13;;;;;;;3.00;2.72;;;16.00;69.20;;;;;;5072608;28;20016;-65
2022/03/13 03:43:38;;;;;;;6.70;4.03;;;16.00;69.40;;;;;;5072655;28;20035;-70
2022/03/13 03:46:04;;;;;;;3.75;3.42;;;16.00;69.60;;;;;;5072751;28;20466;-72
2022/03/13 03:48:30;;;;;;;3.47;2.60;;;15.90;69.70;;;;;;5072990;28;20588;-71
2022/03/13 03:50:55;;;;;;;3.38;3.05;;;15.90;69.70;;;;;;5072820;28;20023;-69
2022/03/13 03:53:21;;;;;;;4.75;3.33;;;15.90;69.80;;;;;;5072532;28;20373;-73
2022/03/13 03:55:47;;;;;;;3.72;3.42;;;15.80;69.80;;;;;;5072449;28;20611;-71
2022/03/13 03:58:13;;;;;;;4.57;4.18;;;15.90;69.90;;;;;;5072521;28;20521;-63
2022/03/13 04:00:39;;;;;;;3.40;3.10;;;15.80;70.00;;;;;;5072545;28;20105;-72
2022/03/13 04:03:05;;;;;;;4.18;3.30;;;15.80;70.10;;;;;;5075685;28;20024;-63
2022/03/13 04:05:30;;;;;;;4.00;3.70;;;15.80;70.20;;;;;;5076521;28;20074;-68
2022/03/13 04:07:56;;;;;;;4.88;4.35;;;15.80;70.30;;;;;;5076152;28;20037;-64
2022/03/13 04:10:22;;;;;;;4.32;3.92;;;15.80;70.40;;;;;;5076139;28;20024;-63
2022/03/13 04:12:47;;;;;;;4.32;3.92;;;15.80;70.60;;;;;;5076110;28;20348;-63
2022/03/13 04:15:13;;;;;;;5.10;4.60;;;15.70;70.80;;;;;;5076170;28;20420;-63
2022/03/13 04:17:38;;;;;;;5.03;4.53;;;15.70;70.80;;;;;;5076119;28;20112;-63
2022/03/13 04:20:06;;;;;;;5.78;4.35;;;15.70;70.90;;;;;;5076069;28;20048;-64
2022/03/13 04:22:32;;;;;;;5.57;4.45;;;15.70;70.90;;;;;;5076357;28;20032;-63
2022/03/13 04:24:57;;;;;;;2.83;2.50;;;15.70;71.10;;;;;;5075650;28;20098;-64
2022/03/13 04:27:23;;;;;;;4.05;3.67;;;15.70;71.00;;;;;;5075907;28;20035;-67
2022/03/13 04:29:48;;;;;;;4.05;3.72;;;15.70;70.90;;;;;;5075929;28;20044;-66
2022/03/13 04:32:21;;;;;;;4.13;3.72;;;15.70;70.90;;;;;;5075879;28;20017;-71
2022/03/13 04:34:47;;;;;;;4.75;4.35;;;15.60;70.90;;;;;;5075723;28;20020;-71
2022/03/13 04:37:14;;;;;;;5.38;4.88;;;15.60;71.00;;;;;;5075263;28;20032;-66
2022/03/13 04:39:40;;;;;;;6.68;5.78;;;15.60;71.10;;;;;;5075825;28;20107;-71
2022/03/13 04:42:06;;;;;;;6.35;5.43;;;15.60;71.20;;;;;;5075721;28;20456;-71
2022/03/13 04:44:33;;;;;;;5.50;4.72;;;15.50;71.40;;;;;;5075784;28;20032;-63
2022/03/13 04:46:59;;;;;;;5.20;4.50;;;15.50;71.50;;;;;;5075772;28;20032;-65
2022/03/13 04:49:25;;;;;;;5.20;4.78;;;15.50;71.50;;;;;;5075404;28;20055;-69
2022/03/13 04:51:50;;;;;;;4.72;4.32;;;15.50;71.60;;;;;;5075151;28;20055;-63
2022/03/13 04:54:17;;;;;;;6.57;4.43;;;15.50;71.50;;;;;;5075387;28;20036;-65
2022/03/13 04:56:44;;;;;;;6.47;4.50;;;15.50;71.50;;;;;;5075528;28;20102;-64
2022/03/13 04:59:10;;;;;;;5.25;4.60;;;15.50;71.40;;;;;;5075785;28;20016;-65
2022/03/13 05:01:36;;;;;;;4.90;4.40;;;15.50;71.30;;;;;;5075321;28;20175;-68
2022/03/13 05:04:02;;;;;;;5.80;4.57;;;15.40;71.30;;;;;;5075062;28;20080;-72
2022/03/13 05:06:28;;;;;;;6.32;4.97;;;15.40;71.40;;;;;;5074970;28;20021;-63
2022/03/13 05:08:53;;;;;;;4.90;4.28;;;15.30;71.50;;;;;;5075408;28;20048;-64
2022/03/13 05:11:19;;;;;;;5.25;4.75;;;15.30;71.50;;;;;;5075161;28;20075;-72
2022/03/13 05:13:45;;;;;;;4.65;4.13;;;15.30;71.60;;;;;;5074780;28;20065;-63
2022/03/13 05:16:11;;;;;;;6.38;5.28;;;15.30;71.50;;;;;;5074994;28;20115;-72
2022/03/13 05:18:36;;;;;;;4.93;4.43;;;15.30;71.50;;;;;;5075188;28;20555;-65
2022/03/13 05:21:02;;;;;;;4.97;4.47;;;15.30;71.50;;;;;;5074705;28;20020;-65
2022/03/13 05:23:28;;;;;;;5.22;4.72;;;15.20;71.80;;;;;;5074966;28;20033;-72
2022/03/13 05:25:53;;;;;;;5.22;4.68;;;15.20;72.00;;;;;;5074550;28;20032;-63
2022/03/13 05:28:19;;;;;;;5.00;4.57;;;15.20;72.20;;;;;;5074960;28;20024;-64
2022/03/13 05:30:46;;;;;;;5.28;4.78;;;15.20;72.20;;;;;;5075045;28;20138;-71
2022/03/13 05:33:12;;;;;;;9.55;6.47;;;15.20;72.50;;;;;;5074797;28;20074;-64
2022/03/13 05:35:37;;;;;;;5.28;4.78;;;15.10;72.60;;;;;;5074125;28;20385;-64
2022/03/13 05:38:03;;;;;;;5.82;4.85;;;15.10;72.70;;;;;;5074627;28;20044;-63
2022/03/13 05:40:29;;;;;;;4.97;4.47;;;15.10;72.70;;;;;;5074592;28;20032;-64
2022/03/13 05:42:57;;;;;;;6.32;5.22;;;15.10;72.80;;;;;;5074531;28;20030;-65
2022/03/13 05:45:25;;;;;;;5.45;4.95;;;15.10;73.00;;;;;;5074600;28;20110;-63
2022/03/13 05:47:53;;;;;;;5.85;5.22;;;15.00;73.00;;;;;;5074679;28;20083;-64
2022/03/13 05:50:20;;;;;;;7.93;5.30;;;15.00;73.80;;;;;;5074219;28;20504;-65
2022/03/13 05:52:47;;;;;;;6.47;5.78;;;15.00;73.20;;;;;;5074384;28;20492;-63
2022/03/13 05:55:14;;;;;;;7.93;6.03;;;15.00;73.30;;;;;;5074089;28;20036;-63
2022/03/13 05:57:40;;;;;;;6.10;5.50;;;14.90;73.40;;;;;;5074167;28;20490;-66
2022/03/13 06:00:11;;;;;;;7.13;6.43;;;15.00;73.50;;;;;;5074078;28;20025;-63
2022/03/13 06:02:38;;;;;;;7.00;5.97;;;14.90;73.50;;;;;;5085570;28;20628;-65
2022/03/13 06:05:05;;;;;;;7.60;6.05;;;14.90;73.60;;;;;;5073207;28;20377;-67
2022/03/13 06:07:32;;;;;;;8.10;5.95;;;14.90;73.70;;;;;;5071254;28;20486;-67
2022/03/13 06:10:02;;;;;;;5.35;4.85;;;14.90;73.80;;;;;;5073796;28;20496;-69
2022/03/13 06:12:30;;;;;;;7.13;6.43;;;14.90;73.70;;;;;;5074244;28;20100;-63
2022/03/13 06:14:56;;;;;;;8.45;6.88;;;14.90;73.90;;;;;;5073926;28;20424;-65
2022/03/13 06:17:21;;;;;;;9.50;8.05;;;14.90;74.10;;;;;;5074959;28;20039;-73
2022/03/13 06:19:47;;;;;;;6.40;5.70;;;14.80;74.20;;;;;;5084687;28;20032;-65
2022/03/13 06:22:13;;;;;;;7.78;6.97;;;14.90;73.90;;;;;;5089588;28;20039;-64
2022/03/13 06:24:38;;;;;;;10.52;8.10;;;14.80;74.00;;;;;;5090671;28;20035;-64
2022/03/13 06:27:06;;;;;;;8.27;7.35;;;14.80;74.00;;;;;;5092535;28;20099;-64
2022/03/13 06:29:32;;;;;;;8.55;7.20;;;14.80;74.10;;;;;;5093781;28;20028;-66
2022/03/13 06:31:58;;;;;;;7.93;6.78;;;14.80;74.10;;;;;;5089516;28;20568;-65
2022/03/13 06:34:24;;;;;;;7.07;6.38;;;14.80;74.10;;;;;;5091188;28;20035;-64
2022/03/13 06:36:50;;;;;;;8.32;7.50;;;14.80;74.00;;;;;;5092305;28;20039;-66
2022/03/13 06:39:15;;;;;;;9.82;8.18;;;14.80;74.10;;;;;;5092565;28;20032;-66
2022/03/13 06:41:41;;;;;;;11.25;6.95;;;14.80;74.00;;;;;;5093369;28;20024;-69
2022/03/13 06:44:07;;;;;;;7.68;6.85;;;14.80;74.40;;;;;;5092139;28;20115;-66
2022/03/13 06:46:32;;;;;;;9.48;8.52;;;14.80;74.20;;;;;;5088452;28;20016;-70
2022/03/13 06:48:59;;;;;;;9.32;8.32;;;14.80;73.90;;;;;;5092677;28;20055;-64
2022/03/13 06:51:25;;;;;;;6.95;6.22;;;14.80;74.00;;;;;;5093397;28;20091;-65
2022/03/13 06:53:50;;;;;;;9.63;7.28;;;14.80;74.00;;;;;;5093060;28;20486;-69
2022/03/13 06:56:16;;;;;;;9.82;8.88;;;14.80;74.00;;;;;;5092902;28;20028;-67
2022/03/13 06:58:42;;;;;;;9.75;8.65;;;14.80;73.70;;;;;;5093209;28;20130;-66
2022/03/13 07:01:08;;;;;;;10.30;9.20;;;14.80;73.90;;;;;;5093363;28;20099;-66
2022/03/13 07:03:34;;;;;;;9.65;8.65;;;14.80;74.20;;;;;;5092542;28;20468;-67
2022/03/13 07:06:02;;;;;;;10.75;8.95;;;14.80;74.50;;;;;;5093269;28;20032;-64
2022/03/13 07:08:28;;;;;;;10.35;8.70;;;14.90;74.40;;;;;;5093250;28;20043;-68
2022/03/13 07:10:54;;;;;;;9.10;8.20;;;14.90;74.40;;;;;;5093150;28;20028;-70
2022/03/13 07:13:20;;;;;;;9.82;8.82;;;14.90;74.20;;;;;;5082335;28;20020;-70
2022/03/13 07:15:48;;;;;;;8.45;7.65;;;14.90;74.30;;;;;;5093016;28;20028;-64
2022/03/13 07:18:13;;;;;;;8.10;7.30;;;15.00;74.20;;;;;;5091915;28;20081;-69
2022/03/13 07:20:39;;;;;;;10.23;7.63;;;15.00;74.00;;;;;;5089044;28;20386;-64
2022/03/13 07:23:04;;;;;;;10.20;8.30;;;15.00;74.00;;;;;;5085848;28;20035;-66
2022/03/13 07:25:30;;;;;;;10.77;8.63;;;15.10;74.00;;;;;;5092732;28;20087;-71
2022/03/13 07:27:56;;;;;;;10.48;9.32;;;15.10;74.10;;;;;;5087126;28;20016;-64
2022/03/13 07:30:21;;;;;;;10.15;9.10;;;15.10;73.70;;;;;;5092665;28;20043;-68
2022/03/13 07:32:47;;;;;;;11.65;10.45;;;15.10;73.70;;;;;;5092243;28;20511;-67
2022/03/13 07:35:12;;;;;;;11.65;10.45;;;15.10;73.50;;;;;;5092467;28;20032;-64
2022/03/13 07:37:38;;;;;;;9.57;8.10;;;15.20;73.50;;;;;;5096669;28;20100;-72
2022/03/13 07:40:05;;;;;;;10.75;9.65;;;15.20;73.50;;;;;;5096908;28;20047;-64
2022/03/13 07:42:31;;;;;;;13.18;9.93;;;15.20;73.50;;;;;;5096641;28;20043;-69
2022/03/13 07:44:56;;;;;;;12.82;10.48;;;15.30;73.40;;;;;;5096964;28;20020;-70
2022/03/13 07:47:22;;;;;;;11.27;10.10;;;15.30;73.30;;;;;;5095997;28;20028;-71
2022/03/13 07:49:48;;;;;;;10.77;9.68;;;15.30;73.30;;;;;;5096801;28;20017;-71
2022/03/13 07:52:13;;;;;;;11.13;9.68;;;15.30;73.30;;;;;;5096608;28;20030;-64
2022/03/13 07:54:39;;;;;;;11.10;10.00;;;15.40;73.10;;;;;;5096324;28;20016;-69
2022/03/13 07:57:05;;;;;;;13.30;9.98;;;15.40;73.80;;;;;;5096246;28;20047;-67
2022/03/13 07:59:30;;;;;;;11.93;7.85;;;15.40;73.10;;;;;;5096411;28;20028;-69
2022/03/13 08:01:56;;;;;;;11.40;9.65;;;15.50;73.40;;;;;;5095889;28;20025;-72
2022/03/13 08:04:22;;;;;;;10.13;8.13;;;15.50;73.00;;;;;;5096333;28;20035;-65
2022/03/13 08:06:47;;;;;;;10.63;8.75;;;15.50;73.20;;;;;;5096247;28;20472;-65
2022/03/13 08:09:13;;;;;;;11.73;10.35;;;15.60;73.20;;;;;;5091528;28;20070;-68
2022/03/13 08:11:39;;;;;;;11.43;10.20;;;15.60;72.50;;;;;;5095753;28;20127;-71
2022/03/13 08:14:07;;;;;;;12.30;10.45;;;15.60;72.50;;;;;;5076646;28;20024;-66
2022/03/13 08:16:33;;;;;;;13.50;11.18;;;15.60;72.10;;;;;;5090654;28;20037;-70
2022/03/13 08:18:59;;;;;;;10.60;6.82;;;15.70;71.90;;;;;;5088012;28;20082;-67
2022/03/13 08:21:26;;;;;;;9.60;7.32;;;15.70;72.70;;;;;;5092361;28;20028;-70
2022/03/13 08:23:52;;;;;;;11.80;9.15;;;15.70;73.30;;;;;;5091439;28;20032;-72
2022/03/13 08:26:18;;;;;;;8.43;6.10;;;15.80;71.80;;;;;;5093533;28;20555;-71
2022/03/13 08:28:44;;;;;;;5.28;4.32;;;15.80;72.70;;;;;;5075493;28;20136;-71
2022/03/13 08:31:10;;;;;;;7.93;7.13;;;15.80;73.10;;;;;;5085488;28;20503;-69
2022/03/13 08:33:36;;;;;;;8.18;5.78;;;15.80;72.10;;;;;;5093887;28;20039;-64
2022/03/13 08:36:02;;;;;;;10.63;5.70;;;15.90;72.10;;;;;;5095594;28;20549;-65
2022/03/13 08:38:28;;;;;;;13.00;6.15;;;15.90;71.80;;;;;;5095965;28;20047;-68
2022/03/13 08:40:54;;;;;;;8.93;6.28;;;16.00;71.30;;;;;;5095974;28;20024;-66
2022/03/13 08:43:20;;;;;;;7.25;6.10;;;16.00;71.00;;;;;;5094382;28;20017;-69
2022/03/13 08:45:46;;;;;;;8.68;3.90;;;16.00;71.00;;;;;;5094093;28;20032;-65
2022/03/13 08:48:13;;;;;;;5.53;3.42;;;16.10;72.00;;;;;;5093242;28;20052;-70
2022/03/13 08:50:39;;;;;;;5.32;3.90;;;16.10;71.90;;;;;;5094114;28;20028;-67
2022/03/13 08:53:04;;;;;;;8.07;6.18;;;16.10;72.00;;;;;;5094221;28;20028;-65
2022/03/13 08:55:30;;;;;;;9.43;5.20;;;16.10;70.40;;;;;;5088115;28;20507;-64
2022/03/13 08:57:56;;;;;;;14.05;4.57;;;16.10;71.20;;;;;;5095605;28;20024;-66
2022/03/13 09:00:24;;;;;;;9.07;4.65;;;16.10;71.50;;;;;;5094780;28;20020;-64
2022/03/13 09:02:50;;;;;;;9.40;4.85;;;16.20;71.50;;;;;;5094165;28;20024;-63
2022/03/13 09:05:16;;;;;;;6.78;3.58;;;16.20;71.20;;;;;;5095389;28;20032;-64
2022/03/13 09:07:41;;;;;;;6.50;5.25;;;16.20;71.20;;;;;;5091079;28;20038;-64
2022/03/13 09:10:08;;;;;;;17.65;6.28;;;16.30;70.50;;;;;;5089525;28;20032;-64
2022/03/13 09:12:35;;;;;;;9.55;5.07;;;16.20;71.00;;;;;;5093442;28;20024;-63
2022/03/13 09:15:01;;;;;;;5.78;4.20;;;16.30;70.30;;;;;;5094679;28;20028;-69
2022/03/13 09:17:27;;;;;;;11.50;4.35;;;16.20;71.30;;;;;;5094163;28;20055;-64
2022/03/13 09:19:53;;;;;;;7.45;5.45;;;16.30;70.90;;;;;;5089298;28;20354;-69
2022/03/13 09:22:20;;;;;;;11.07;4.68;;;16.30;70.60;;;;;;5083748;28;20150;-69
2022/03/13 09:24:46;;;;;;;7.10;4.55;;;16.30;70.70;;;;;;5085724;28;20097;-70
2022/03/13 09:27:12;;;;;;;8.50;4.50;;;16.40;70.20;;;;;;5081210;28;20444;-64
2022/03/13 09:29:38;;;;;;;6.15;3.95;;;16.40;70.10;;;;;;5085020;28;20048;-63
2022/03/13 09:32:05;;;;;;;6.90;4.20;;;16.40;69.70;;;;;;5066164;28;20107;-67
2022/03/13 09:34:31;;;;;;;8.00;3.60;;;16.40;69.70;;;;;;5087604;28;20030;-64
2022/03/13 09:36:57;;;;;;;6.53;4.68;;;16.40;70.20;;;;;;5087891;28;20119;-66
2022/03/13 09:39:23;;;;;;;9.27;7.25;;;16.50;69.80;;;;;;5094540;28;20097;-66
2022/03/13 09:41:49;;;;;;;9.40;5.82;;;16.50;68.20;;;;;;5091795;28;20025;-63
2022/03/13 09:44:14;;;;;;;6.30;4.05;;;16.50;68.90;;;;;;5094695;28;20032;-70
2022/03/13 09:46:40;;;;;;;7.15;4.80;;;16.40;69.90;;;;;;5089769;28;20027;-64
2022/03/13 09:49:06;;;;;;;7.22;4.85;;;16.50;70.00;;;;;;5090453;28;20027;-64
2022/03/13 09:51:31;;;;;;;9.27;5.18;;;16.50;70.00;;;;;;5085707;28;20173;-64
2022/03/13 09:53:58;;;;;;;6.78;4.45;;;16.50;70.00;;;;;;5093330;28;20027;-64
2022/03/13 09:56:24;;;;;;;12.98;7.90;;;16.60;70.60;;;;;;5091226;28;20073;-64
2022/03/13 09:58:49;;;;;;;7.05;4.95;;;16.60;68.50;;;;;;5087398;28;20024;-64
2022/03/13 10:01:15;;;;;;;12.23;4.63;;;16.60;70.80;;;;;;5088917;28;20031;-65
2022/03/13 10:03:41;;;;;;;9.85;5.35;;;16.60;72.10;;;;;;5093452;28;20056;-64
2022/03/13 10:06:06;;;;;;;14.68;6.15;;;16.60;72.10;;;;;;5090449;28;20024;-65
2022/03/13 10:08:32;;;;;;;10.75;5.97;;;16.60;72.30;;;;;;5089378;28;20028;-64
2022/03/13 10:10:59;;;;;;;7.20;5.32;;;16.70;71.40;;;;;;5067755;28;20055;-64
2022/03/13 10:13:37;;;;;;;9.50;5.53;;;16.70;70.40;;;;;;5085971;28;20026;-63
2022/03/13 10:16:05;;;;;;;9.38;4.82;;;16.70;70.70;;;;;;5090395;28;20024;-65
2022/03/13 10:18:31;;;;;;;6.15;4.72;;;16.70;70.40;;;;;;5084193;28;20062;-67
2022/03/13 10:21:05;;;;;;;5.57;4.63;;;16.60;70.40;;;;;;5090390;28;20051;-67
2022/03/13 10:23:30;;;;;;;11.95;4.75;;;16.70;69.40;;;;;;5084087;28;20571;-66
2022/03/13 10:25:56;;;;;;;7.35;4.00;;;16.60;72.50;;;;;;5080621;28;20033;-69
2022/03/13 10:28:21;;;;;;;8.90;4.32;;;16.80;73.20;;;;;;5089334;28;20024;-67
2022/03/13 10:30:56;;;;;;;9.18;3.90;;;16.80;72.60;;;;;;5069645;28;20024;-65
2022/03/13 10:33:26;;;;;;;5.63;4.00;;;16.80;71.40;;;;;;5088302;28;20020;-68
2022/03/13 10:36:08;;;;;;;8.35;3.90;;;16.80;70.30;;;;;;5086345;28;20103;-63
2022/03/13 10:38:35;;;;;;;8.00;3.53;;;16.80;71.20;;;;;;5083345;28;20557;-66
2022/03/13 10:41:05;;;;;;;5.25;3.45;;;16.80;72.00;;;;;;5089293;28;20028;-68
2022/03/13 10:43:31;;;;;;;5.32;3.38;;;16.80;71.70;;;;;;5069598;28;20118;-65
2022/03/13 10:45:58;;;;;;;6.78;3.50;;;16.80;71.60;;;;;;5085331;28;20028;-66
2022/03/13 10:48:36;;;;;;;5.90;3.13;;;16.90;71.40;;;;;;5071154;28;20020;-70
2022/03/13 10:51:08;;;;;;;7.35;3.47;;;16.80;72.40;;;;;;5073321;28;20107;-70
2022/03/13 10:53:38;;;;;;;6.43;4.05;;;16.80;74.10;;;;;;5087237;28;20103;-67
2022/03/13 10:56:11;;;;;;;6.00;3.30;;;16.90;71.00;;;;;;5090491;28;20028;-69
2022/03/13 10:58:39;;;;;;;6.10;3.72;;;16.90;70.40;;;;;;5073537;28;20041;-67
2022/03/13 11:01:10;;;;;;;5.20;2.80;;;16.90;70.70;;;;;;5086567;28;20377;-68
2022/03/13 11:03:37;;;;;;;9.93;2.97;;;16.90;72.50;;;;;;5088201;28;20032;-70
2022/03/13 11:06:04;;;;;;;6.50;3.25;;;16.90;72.60;;;;;;5068506;28;20016;-68
2022/03/13 11:08:30;;;;;;;4.30;2.63;;;17.00;70.60;;;;;;5082778;28;20104;-70
2022/03/13 11:10:58;;;;;;;5.47;3.65;;;16.90;71.10;;;;;;5089087;28;20047;-70
2022/03/13 11:13:28;;;;;;;4.25;3.10;;;17.00;69.00;;;;;;5079769;28;20016;-70
2022/03/13 11:15:57;;;;;;;7.38;2.70;;;17.00;69.20;;;;;;5080243;28;20024;-67
2022/03/13 11:18:29;;;;;;;4.28;2.70;;;17.00;71.20;;;;;;5082897;28;20107;-70
2022/03/13 11:20:58;;;;;;;6.38;4.05;;;17.00;70.90;;;;;;5082935;28;20026;-68
2022/03/13 11:23:23;;;;;;;3.92;2.72;;;17.10;69.20;;;;;;5078461;28;20063;-69
2022/03/13 11:25:54;;;;;;;4.15;2.70;;;17.00;70.20;;;;;;5080598;28;20051;-70
2022/03/13 11:28:20;;;;;;;3.10;2.40;;;17.10;68.90;;;;;;5065000;28;20047;-68
2022/03/13 11:30:46;;;;;;;3.35;2.67;;;17.10;68.80;;;;;;5069580;28;20051;-70
2022/03/13 11:33:32;;;;;;;3.60;2.83;;;17.10;67.80;;;;;;5059805;28;20061;-70
2022/03/13 11:36:25;;;;;;;3.88;2.35;;;17.10;67.70;;;;;;5089358;28;20032;-70
2022/03/13 11:39:06;;;;;;;3.67;2.65;;;17.10;67.50;;;;;;5084618;28;20037;-69
2022/03/13 11:41:43;;;;;;;7.53;2.35;;;17.20;69.00;;;;;;5085395;28;20024;-70
2022/03/13 11:44:17;;;;;;;3.50;2.13;;;17.20;69.40;;;;;;5091366;28;20046;-67
2022/03/13 11:46:46;;;;;;;6.22;2.80;;;17.20;69.60;;;;;;5092416;28;20042;-69
2022/03/13 11:49:16;;;;;;;3.90;2.45;;;17.20;69.10;;;;;;5091760;28;20028;-69
2022/03/13 11:51:43;;;;;;;5.28;2.78;;;17.20;69.00;;;;;;5090374;28;20033;-67
2022/03/13 11:54:10;;;;;;;6.13;2.60;;;17.20;68.00;;;;;;5087108;28;20403;-70
2022/03/13 11:56:46;;;;;;;9.77;2.72;;;17.20;68.80;;;;;;5090888;28;20024;-70
2022/03/13 11:59:19;;;;;;;6.03;2.55;;;17.30;68.60;;;;;;5088724;28;20033;-69
2022/03/13 12:01:45;;;;;;;17.88;2.45;;;17.30;68.50;;;;;;5089162;28;20354;-69
2022/03/13 12:04:11;;;;;;;10.55;2.38;;;17.30;67.80;;;;;;5090812;28;20052;-70
2022/03/13 12:06:41;;;;;;;9.68;2.38;;;17.30;68.70;;;;;;5088007;28;20058;-73
2022/03/13 12:09:08;;;;;;;11.65;2.53;;;17.40;69.60;;;;;;5080146;28;20476;-71
2022/03/13 12:11:38;;;;;;;5.38;2.03;;;17.40;68.90;;;;;;5084099;28;20032;-71
2022/03/13 12:14:09;;;;;;;6.68;2.28;;;17.40;68.60;;;;;;5084381;28;20103;-68
2022/03/13 12:16:36;;;;;;;6.57;2.60;;;17.40;68.20;;;;;;5072670;28;20052;-65
2022/03/13 12:19:02;;;;;;;9.55;2.83;;;17.40;67.80;;;;;;5084688;28;20031;-65
2022/03/13 12:21:28;;;;;;;16.67;3.35;;;17.50;69.10;;;;;;5081101;28;20362;-68
2022/03/13 12:23:58;;;;;;;15.25;2.67;;;17.50;69.00;;;;;;5087355;28;20530;-67
2022/03/13 12:26:32;;;;;;;8.75;2.50;;;17.40;68.90;;;;;;5094527;28;20024;-66
2022/03/13 12:28:58;;;;;;;4.20;2.20;;;17.50;68.80;;;;;;5091230;28;20028;-69
2022/03/13 12:31:25;;;;;;;8.90;3.17;;;17.50;67.20;;;;;;5093036;28;20471;-66
2022/03/13 12:33:53;;;;;;;4.10;2.38;;;17.50;67.30;;;;;;5088060;28;20108;-67
2022/03/13 12:36:23;;;;;;;7.07;2.22;;;17.60;65.80;;;;;;5086128;28;20032;-68
2022/03/13 12:38:50;;;;;;;9.18;2.60;;;17.60;67.90;;;;;;5071326;28;20694;-69
2022/03/13 12:41:16;;;;;;;8.15;2.40;;;17.60;68.00;;;;;;5090714;28;20473;-67
2022/03/13 12:43:50;;;;;;;4.93;2.55;;;17.60;67.80;;;;;;5093294;28;20053;-67